Time;durP1;ratioP1;P1;durP2;ratioP2;P2;SDS_P1;SDS_P2;PMS_P1;PMS_P2;Temp;Humidity;BMP_temperature;BMP_pressure;BME280_temperature;BME280_humidity;BME280_pressure;Samples;Min_cycle;Max_cycle;Signal;HPM_P1;HPM_P2
2022/05/28 00:00:20;;;;;;;3.75;1.35;;;22.90;45.80;;;;;;7680919;23;20471;-73
2022/05/28 00:03:21;;;;;;;2.35;0.80;;;22.80;46.00;;;;;;7655544;23;20021;-73
2022/05/28 00:06:24;;;;;;;1.17;0.90;;;22.70;46.20;;;;;;7681287;23;20013;-74
2022/05/28 00:09:25;;;;;;;1.90;0.90;;;22.70;46.40;;;;;;7681190;23;20024;-75
2022/05/28 00:12:29;;;;;;;5.15;1.17;;;22.70;46.60;;;;;;7680988;23;20289;-73
2022/05/28 00:15:30;;;;;;;1.27;0.80;;;22.60;47.40;;;;;;7707171;23;20027;-73
2022/05/28 00:18:31;;;;;;;2.67;1.30;;;22.50;47.00;;;;;;7706531;23;20424;-75
2022/05/28 00:21:32;;;;;;;2.95;0.90;;;22.40;47.20;;;;;;7680891;23;20035;-73
2022/05/28 00:24:33;;;;;;;2.90;0.85;;;22.40;47.30;;;;;;7679998;23;20092;-73
2022/05/28 00:27:34;;;;;;;1.17;0.90;;;22.30;47.60;;;;;;7680763;23;20031;-73
2022/05/28 00:30:35;;;;;;;0.60;0.60;;;22.20;47.80;;;;;;7707850;23;20020;-74
2022/05/28 00:33:36;;;;;;;1.33;0.70;;;22.10;47.90;;;;;;7680844;23;20107;-73
2022/05/28 00:36:36;;;;;;;2.50;0.70;;;22.10;48.10;;;;;;7707916;23;20099;-73
2022/05/28 00:39:37;;;;;;;4.05;0.85;;;22.00;48.30;;;;;;7706593;23;20098;-73
2022/05/28 00:42:38;;;;;;;2.25;0.95;;;22.00;48.40;;;;;;7680608;23;20017;-74
2022/05/28 00:45:40;;;;;;;3.20;1.00;;;21.90;48.60;;;;;;7680357;23;20104;-73
2022/05/28 00:48:44;;;;;;;3.85;1.13;;;21.80;48.80;;;;;;7707045;23;20025;-73
2022/05/28 00:51:49;;;;;;;3.50;1.17;;;21.80;48.90;;;;;;7707084;23;20364;-73
2022/05/28 00:54:52;;;;;;;1.90;1.10;;;21.70;49.00;;;;;;7706861;23;20020;-75
2022/05/28 00:57:53;;;;;;;1.20;0.93;;;21.70;49.20;;;;;;7679852;23;20028;-73
2022/05/28 01:00:54;;;;;;;13.30;1.00;;;21.60;49.30;;;;;;7680014;23;20020;-73
2022/05/28 01:04:16;;;;;;;2.03;0.80;;;21.60;49.40;;;;;;7706734;23;20084;-73
2022/05/28 01:07:58;;;;;;;2.00;1.08;;;21.50;49.60;;;;;;7679702;23;20040;-73
2022/05/28 01:11:05;;;;;;;1.02;0.73;;;21.40;49.80;;;;;;7483518;23;20035;-73
2022/05/28 01:14:33;;;;;;;2.08;1.02;;;21.40;49.90;;;;;;7470516;23;20020;-73
2022/05/28 01:17:39;;;;;;;3.13;1.08;;;21.30;50.00;;;;;;7483101;23;20387;-73
2022/05/28 01:20:52;;;;;;;2.90;0.80;;;21.40;50.00;;;;;;7472117;23;20028;-73
2022/05/28 01:24:05;;;;;;;2.08;1.00;;;21.30;50.00;;;;;;7450146;23;20423;-74
2022/05/28 01:27:27;;;;;;;4.78;1.10;;;21.30;50.10;;;;;;7450461;23;20038;-74
2022/05/28 01:30:28;;;;;;;1.95;0.93;;;21.30;50.10;;;;;;7449764;23;20086;-74
2022/05/28 01:33:30;;;;;;;3.13;0.88;;;21.20;50.10;;;;;;7447672;23;20462;-74
2022/05/28 01:36:33;;;;;;;3.22;0.95;;;21.20;50.20;;;;;;7425324;23;20023;-73
2022/05/28 01:39:36;;;;;;;1.77;0.82;;;21.10;50.30;;;;;;7449068;23;20031;-73
2022/05/28 01:42:43;;;;;;;4.57;1.48;;;21.10;50.50;;;;;;7449987;23;20086;-74
2022/05/28 01:45:46;;;;;;;8.93;0.82;;;21.10;50.70;;;;;;7529449;23;20028;-73
2022/05/28 01:48:52;;;;;;;1.85;0.82;;;21.00;50.80;;;;;;7617686;23;20019;-74
2022/05/28 01:51:56;;;;;;;1.38;0.98;;;21.00;50.90;;;;;;7669012;23;20094;-74
2022/05/28 01:54:58;;;;;;;1.55;1.00;;;20.90;51.00;;;;;;7670454;23;20024;-72
2022/05/28 01:57:59;;;;;;;1.20;0.75;;;20.80;51.10;;;;;;7644412;23;20091;-72
2022/05/28 02:01:02;;;;;;;1.95;0.73;;;20.80;51.20;;;;;;7644584;23;20023;-72
2022/05/28 02:04:04;;;;;;;1.00;0.88;;;20.90;51.40;;;;;;7670391;23;20017;-73
2022/05/28 02:07:06;;;;;;;2.90;0.75;;;20.70;51.40;;;;;;7620319;23;20472;-73
2022/05/28 02:10:15;;;;;;;3.80;1.10;;;20.70;51.50;;;;;;7645378;23;20009;-73
2022/05/28 02:13:29;;;;;;;1.45;1.00;;;20.60;51.70;;;;;;7670576;23;20099;-73
2022/05/28 02:16:48;;;;;;;2.30;1.10;;;20.60;51.70;;;;;;7643960;23;20057;-74
2022/05/28 02:20:25;;;;;;;2.97;1.20;;;20.60;51.80;;;;;;7648983;23;20052;-74
2022/05/28 02:23:29;;;;;;;3.65;0.90;;;20.60;51.90;;;;;;7677465;23;20036;-73
2022/05/28 02:26:46;;;;;;;3.35;0.80;;;20.60;52.00;;;;;;7678657;23;20079;-72
2022/05/28 02:29:47;;;;;;;1.23;1.00;;;20.50;52.00;;;;;;7678711;23;20036;-72
2022/05/28 02:32:57;;;;;;;1.67;0.90;;;20.50;52.00;;;;;;7704149;23;20016;-73
2022/05/28 02:35:59;;;;;;;1.92;1.10;;;20.50;52.00;;;;;;7638121;23;20020;-72
2022/05/28 02:39:00;;;;;;;3.35;1.17;;;20.50;52.00;;;;;;7704024;23;20110;-73
2022/05/28 02:42:00;;;;;;;1.58;0.98;;;20.50;52.00;;;;;;7704697;23;20418;-73
2022/05/28 02:45:01;;;;;;;4.43;1.45;;;20.60;52.00;;;;;;7702450;23;20024;-72
2022/05/28 02:48:02;;;;;;;4.78;0.93;;;20.50;52.00;;;;;;7702427;23;20101;-73
2022/05/28 02:51:04;;;;;;;1.77;1.20;;;20.60;52.00;;;;;;7653359;23;20016;-73
2022/05/28 02:54:05;;;;;;;2.33;1.20;;;20.60;52.10;;;;;;7653544;23;20082;-73
2022/05/28 02:57:06;;;;;;;3.40;1.00;;;20.60;52.10;;;;;;7677933;23;20017;-73
2022/05/28 03:00:07;;;;;;;1.83;0.90;;;20.60;52.10;;;;;;7704327;23;20012;-73
2022/05/28 03:03:08;;;;;;;3.20;1.02;;;20.60;52.10;;;;;;7677723;23;20016;-73
2022/05/28 03:06:09;;;;;;;1.20;1.10;;;20.60;52.20;;;;;;7680222;23;20452;-72
2022/05/28 03:09:10;;;;;;;6.05;1.83;;;20.60;52.20;;;;;;7678271;23;20014;-73
2022/05/28 03:12:11;;;;;;;2.08;1.50;;;20.50;52.30;;;;;;7706908;23;20013;-73
2022/05/28 03:15:12;;;;;;;1.83;1.00;;;20.50;52.40;;;;;;7706501;23;20032;-73
2022/05/28 03:18:13;;;;;;;3.97;1.30;;;20.40;52.50;;;;;;7680159;23;20044;-73
2022/05/28 03:21:14;;;;;;;2.22;1.10;;;20.40;52.50;;;;;;7679319;23;20020;-73
2022/05/28 03:24:15;;;;;;;1.58;0.95;;;20.40;52.70;;;;;;7706401;23;20023;-73
2022/05/28 03:27:16;;;;;;;1.50;0.90;;;20.30;52.70;;;;;;7705872;23;20054;-72
2022/05/28 03:30:17;;;;;;;1.55;1.02;;;20.30;52.70;;;;;;7680544;23;20024;-73
2022/05/28 03:33:18;;;;;;;1.27;1.13;;;20.30;52.70;;;;;;7679709;23;20411;-72
2022/05/28 03:36:20;;;;;;;1.88;1.30;;;20.30;52.80;;;;;;7706616;23;20024;-73
2022/05/28 03:39:21;;;;;;;2.90;1.23;;;20.20;52.90;;;;;;7655244;23;20040;-72
2022/05/28 03:42:22;;;;;;;2.55;1.20;;;20.20;53.00;;;;;;7680407;23;20082;-73
2022/05/28 03:45:25;;;;;;;2.45;1.20;;;20.20;53.00;;;;;;7679883;23;20026;-73
2022/05/28 03:48:27;;;;;;;1.75;1.30;;;20.20;53.10;;;;;;7655683;23;20027;-72
2022/05/28 03:51:28;;;;;;;3.30;1.30;;;20.10;53.10;;;;;;7706154;23;20376;-73
2022/05/28 03:54:29;;;;;;;2.58;1.35;;;20.10;53.10;;;;;;7679432;23;20023;-73
2022/05/28 03:57:32;;;;;;;2.72;1.38;;;20.10;53.10;;;;;;7665619;23;20017;-72
2022/05/28 04:00:34;;;;;;;1.40;1.30;;;20.10;53.10;;;;;;7679988;23;20016;-72
2022/05/28 04:03:35;;;;;;;2.38;1.15;;;20.10;53.10;;;;;;7705717;23;20450;-73
2022/05/28 04:06:37;;;;;;;3.05;1.42;;;20.20;53.10;;;;;;7679793;23;20263;-73
2022/05/28 04:09:39;;;;;;;3.88;1.60;;;20.20;53.10;;;;;;7705837;23;20427;-73
2022/05/28 04:12:40;;;;;;;2.78;1.50;;;20.20;53.10;;;;;;7680437;23;20019;-73
2022/05/28 04:15:40;;;;;;;3.30;1.50;;;20.20;53.20;;;;;;7705412;23;20013;-73
2022/05/28 04:18:41;;;;;;;3.20;1.50;;;20.20;53.20;;;;;;7705454;23;20106;-72
2022/05/28 04:21:42;;;;;;;2.17;1.55;;;20.20;53.20;;;;;;7678835;23;20350;-73
2022/05/28 04:24:43;;;;;;;4.47;1.25;;;20.10;53.10;;;;;;7665093;23;20016;-73
2022/05/28 04:27:44;;;;;;;1.95;1.40;;;20.10;53.20;;;;;;7704681;23;20075;-72
2022/05/28 04:30:45;;;;;;;1.90;1.40;;;20.10;53.20;;;;;;7705865;23;20028;-72
2022/05/28 04:33:46;;;;;;;3.88;1.77;;;20.10;53.10;;;;;;7678860;23;20020;-73
2022/05/28 04:36:47;;;;;;;2.85;1.65;;;20.20;53.10;;;;;;7705658;23;20763;-72
2022/05/28 04:39:48;;;;;;;1.95;1.40;;;20.20;53.00;;;;;;7705347;23;20056;-73
2022/05/28 04:42:49;;;;;;;4.40;1.45;;;20.20;53.00;;;;;;7678250;23;20021;-74
2022/05/28 04:45:50;;;;;;;3.05;1.40;;;20.20;53.00;;;;;;7679588;23;20774;-73
2022/05/28 04:48:50;;;;;;;1.70;1.20;;;20.20;53.00;;;;;;7705590;23;20364;-73
2022/05/28 04:51:51;;;;;;;2.72;1.50;;;20.20;53.00;;;;;;7678598;23;20032;-73
2022/05/28 04:54:52;;;;;;;2.88;1.15;;;20.10;53.00;;;;;;7704918;23;20019;-72
2022/05/28 04:57:53;;;;;;;7.15;1.90;;;20.10;53.10;;;;;;7679082;23;20025;-73
2022/05/28 05:00:55;;;;;;;4.63;2.03;;;20.10;53.20;;;;;;7703765;23;20420;-72
2022/05/28 05:03:56;;;;;;;2.30;1.58;;;20.00;53.30;;;;;;7653616;23;20044;-73
2022/05/28 05:06:57;;;;;;;2.30;1.95;;;20.00;53.50;;;;;;7689144;23;20139;-72
2022/05/28 05:09:58;;;;;;;2.70;1.70;;;19.90;53.60;;;;;;7679879;23;20071;-72
2022/05/28 05:12:59;;;;;;;2.47;1.30;;;19.90;53.60;;;;;;7704566;23;20021;-72
2022/05/28 05:16:00;;;;;;;3.83;1.20;;;20.00;53.60;;;;;;7653325;23;20035;-72
2022/05/28 05:19:01;;;;;;;2.25;1.60;;;20.00;53.60;;;;;;7704529;23;20058;-73
2022/05/28 05:22:02;;;;;;;5.10;1.55;;;20.00;53.50;;;;;;7704722;23;20098;-73
2022/05/28 05:25:04;;;;;;;1.77;1.30;;;20.00;53.40;;;;;;7678495;23;20082;-72
2022/05/28 05:28:05;;;;;;;4.63;1.70;;;20.10;53.50;;;;;;7706048;23;20020;-73
2022/05/28 05:31:06;;;;;;;2.05;1.58;;;20.10;53.40;;;;;;7680644;23;20032;-73
2022/05/28 05:34:07;;;;;;;2.70;1.30;;;20.10;53.00;;;;;;7706076;23;20462;-73
2022/05/28 05:37:08;;;;;;;3.75;1.52;;;20.10;53.50;;;;;;7681094;23;20419;-73
2022/05/28 05:40:10;;;;;;;2.85;1.60;;;20.10;53.50;;;;;;7680263;23;20035;-73
2022/05/28 05:43:11;;;;;;;3.63;1.80;;;20.10;53.50;;;;;;7680327;23;20408;-73
2022/05/28 05:46:13;;;;;;;2.20;1.67;;;20.10;53.50;;;;;;7680421;23;20024;-73
2022/05/28 05:49:17;;;;;;;4.03;1.67;;;20.10;53.50;;;;;;7706489;23;20431;-72
2022/05/28 05:52:18;;;;;;;3.13;2.20;;;20.00;53.60;;;;;;7642873;23;20091;-72
2022/05/28 05:55:19;;;;;;;3.80;1.88;;;20.10;54.30;;;;;;7680025;23;20035;-72
2022/05/28 05:58:20;;;;;;;2.65;2.00;;;20.10;53.60;;;;;;7680237;23;20332;-72
2022/05/28 06:01:21;;;;;;;3.65;2.55;;;20.10;53.50;;;;;;7679965;23;20071;-72
2022/05/28 06:04:22;;;;;;;4.13;2.67;;;20.20;53.50;;;;;;7679646;23;20427;-73
2022/05/28 06:07:22;;;;;;;4.95;2.70;;;20.30;53.40;;;;;;7706392;23;20041;-73
2022/05/28 06:10:24;;;;;;;11.48;3.03;;;20.30;53.20;;;;;;7678848;23;20020;-73
2022/05/28 06:13:24;;;;;;;2.90;2.00;;;20.40;53.10;;;;;;7706293;23;20305;-73
2022/05/28 06:16:26;;;;;;;3.08;2.35;;;20.40;53.10;;;;;;7706470;23;20013;-73
2022/05/28 06:19:27;;;;;;;2.85;2.17;;;20.50;53.10;;;;;;7705204;23;20035;-72
2022/05/28 06:22:27;;;;;;;4.28;2.17;;;20.50;52.90;;;;;;7667358;23;20380;-73
2022/05/28 06:25:28;;;;;;;4.43;2.78;;;20.60;52.90;;;;;;7668185;23;20325;-73
2022/05/28 06:28:29;;;;;;;4.32;2.63;;;20.70;52.80;;;;;;7670097;23;20047;-72
2022/05/28 06:31:30;;;;;;;4.10;2.17;;;20.80;52.60;;;;;;7667937;23;20059;-72
2022/05/28 06:34:31;;;;;;;6.75;2.88;;;20.80;52.50;;;;;;7667835;23;20088;-72
2022/05/28 06:37:32;;;;;;;6.55;2.72;;;20.90;52.40;;;;;;7668293;23;20091;-73
2022/05/28 06:40:35;;;;;;;6.57;3.03;;;20.90;52.30;;;;;;7670547;23;20021;-73
2022/05/28 06:43:36;;;;;;;5.10;2.60;;;20.90;52.40;;;;;;7670074;23;20479;-72
2022/05/28 06:46:37;;;;;;;6.10;3.13;;;20.90;52.30;;;;;;7672041;23;20084;-72
2022/05/28 06:49:38;;;;;;;4.45;2.63;;;20.90;52.30;;;;;;7583944;23;20014;-74
2022/05/28 06:52:39;;;;;;;7.80;3.40;;;20.90;52.30;;;;;;7668440;23;20108;-72
2022/05/28 06:55:39;;;;;;;4.90;3.03;;;21.00;52.40;;;;;;7670648;23;20408;-72
2022/05/28 06:58:43;;;;;;;3.30;2.80;;;21.00;52.20;;;;;;7671062;23;20373;-73
2022/05/28 07:01:44;;;;;;;7.40;3.97;;;21.00;52.10;;;;;;7675825;23;20020;-72
2022/05/28 07:04:45;;;;;;;4.63;3.00;;;21.00;52.10;;;;;;7677770;23;20380;-73
2022/05/28 07:07:46;;;;;;;6.82;3.58;;;21.00;52.00;;;;;;7674851;23;20091;-73
2022/05/28 07:10:50;;;;;;;5.35;3.38;;;21.00;52.10;;;;;;7676438;23;20036;-73
2022/05/28 07:13:50;;;;;;;6.30;3.75;;;21.00;52.20;;;;;;7675789;23;20021;-73
2022/05/28 07:16:51;;;;;;;5.47;3.53;;;21.00;52.10;;;;;;7674540;23;20013;-73
2022/05/28 07:19:52;;;;;;;5.28;3.53;;;21.10;52.00;;;;;;7680078;23;20086;-75
2022/05/28 07:22:53;;;;;;;5.65;3.92;;;21.10;51.80;;;;;;7714140;23;20020;-73
2022/05/28 07:26:08;;;;;;;10.57;4.00;;;21.20;51.70;;;;;;7662419;23;20008;-73
2022/05/28 07:29:09;;;;;;;9.02;4.13;;;21.30;51.60;;;;;;7686505;23;20028;-74
2022/05/28 07:32:10;;;;;;;7.10;4.25;;;21.40;51.30;;;;;;7712985;23;20016;-73
2022/05/28 07:35:11;;;;;;;5.70;3.95;;;21.50;51.20;;;;;;7713548;23;20462;-75
2022/05/28 07:38:12;;;;;;;11.68;4.22;;;21.60;51.00;;;;;;7712851;23;20340;-75
2022/05/28 07:41:17;;;;;;;6.15;4.47;;;21.70;50.80;;;;;;7713087;23;20032;-75
2022/05/28 07:44:19;;;;;;;4.95;3.97;;;21.80;50.60;;;;;;7686668;23;20036;-73
2022/05/28 07:47:20;;;;;;;7.20;4.38;;;21.90;50.30;;;;;;7687627;23;20023;-74
2022/05/28 07:50:21;;;;;;;5.95;4.30;;;22.00;50.20;;;;;;7712059;23;20376;-73
2022/05/28 07:53:22;;;;;;;5.93;4.07;;;22.10;49.90;;;;;;7713132;23;20328;-73
2022/05/28 07:56:23;;;;;;;9.48;4.25;;;22.30;49.70;;;;;;7684432;23;20020;-73
2022/05/28 07:59:24;;;;;;;6.50;4.57;;;22.40;49.50;;;;;;7712977;23;20353;-74
2022/05/28 08:02:25;;;;;;;6.70;3.80;;;22.60;49.20;;;;;;7712703;23;20017;-73
2022/05/28 08:05:26;;;;;;;12.82;4.50;;;22.70;48.90;;;;;;7686380;23;20320;-72
2022/05/28 08:08:28;;;;;;;5.32;3.83;;;22.80;48.60;;;;;;7712513;23;20043;-73
2022/05/28 08:11:29;;;;;;;6.05;3.90;;;22.70;48.50;;;;;;7686558;23;20020;-72
2022/05/28 08:14:29;;;;;;;5.25;4.00;;;22.80;48.50;;;;;;7711745;23;20116;-72
2022/05/28 08:17:32;;;;;;;7.07;4.70;;;22.80;48.30;;;;;;7686321;23;20074;-75
2022/05/28 08:23:53;;;;;;;4.93;3.97;;;23.00;48.00;;;;;;7711243;23;20005;-74
2022/05/28 08:26:54;;;;;;;7.15;3.90;;;23.30;47.60;;;;;;7683877;23;20012;-75
2022/05/28 08:29:55;;;;;;;5.00;3.17;;;23.50;47.00;;;;;;7683324;23;20013;-75
2022/05/28 08:32:55;;;;;;;5.85;3.72;;;23.80;46.60;;;;;;7711392;23;20131;-74
2022/05/28 08:35:56;;;;;;;5.03;3.63;;;23.90;46.20;;;;;;7686033;23;20016;-74
2022/05/28 08:38:58;;;;;;;6.28;3.88;;;24.00;45.80;;;;;;7712238;23;20028;-74
2022/05/28 08:41:59;;;;;;;4.38;3.47;;;24.10;45.80;;;;;;7661065;23;20012;-75
2022/05/28 08:45:04;;;;;;;6.60;3.47;;;24.10;45.60;;;;;;7712315;23;20024;-75
2022/05/28 08:48:06;;;;;;;5.43;3.40;;;24.20;45.30;;;;;;7685208;23;20020;-75
2022/05/28 08:51:29;;;;;;;5.88;3.20;;;24.30;45.00;;;;;;7686049;23;20016;-75
2022/05/28 08:54:42;;;;;;;4.10;3.30;;;24.40;44.70;;;;;;7712031;23;20032;-74
2022/05/28 08:57:53;;;;;;;4.50;3.05;;;24.40;44.50;;;;;;7709913;23;20316;-75
2022/05/28 09:01:04;;;;;;;4.45;3.00;;;24.40;44.30;;;;;;7711088;23;20011;-75
2022/05/28 09:04:11;;;;;;;3.88;2.85;;;24.30;44.10;;;;;;7685498;23;20008;-75
2022/05/28 09:07:14;;;;;;;4.78;2.83;;;24.40;44.10;;;;;;7684999;23;20028;-75
2022/05/28 09:10:15;;;;;;;4.43;2.72;;;24.30;44.00;;;;;;7712029;23;20017;-74
2022/05/28 09:13:41;;;;;;;4.50;2.90;;;24.40;44.00;;;;;;7711969;23;20025;-75
2022/05/28 09:16:44;;;;;;;3.13;2.40;;;24.50;43.70;;;;;;7655833;23;20017;-75
2022/05/28 09:19:45;;;;;;;3.53;2.13;;;24.40;43.50;;;;;;7711323;23;20082;-75
2022/05/28 09:22:47;;;;;;;3.38;2.33;;;24.30;43.50;;;;;;7685388;23;20024;-75
2022/05/28 09:25:49;;;;;;;5.43;2.30;;;24.10;43.80;;;;;;7711108;23;20072;-75
2022/05/28 09:29:17;;;;;;;5.28;2.58;;;24.20;44.00;;;;;;7711317;23;20031;-74
2022/05/28 09:32:31;;;;;;;4.55;2.50;;;24.40;43.80;;;;;;7710117;23;20345;-76
2022/05/28 09:35:38;;;;;;;3.92;2.00;;;24.60;43.30;;;;;;7711760;23;20084;-75
2022/05/28 09:38:52;;;;;;;3.17;2.10;;;24.90;42.70;;;;;;7711286;23;20335;-75
2022/05/28 09:42:17;;;;;;;5.47;2.28;;;25.10;42.30;;;;;;7684735;23;20028;-76
2022/05/28 09:45:25;;;;;;;6.82;1.90;;;25.30;41.90;;;;;;7684150;23;20020;-76
2022/05/28 09:48:28;;;;;;;4.40;1.90;;;25.50;41.30;;;;;;7684778;23;20044;-74
2022/05/28 09:51:32;;;;;;;2.95;1.70;;;25.70;41.00;;;;;;7710819;23;20039;-75
2022/05/28 09:54:34;;;;;;;2.75;1.92;;;25.70;40.80;;;;;;7685344;23;20024;-75
2022/05/28 09:57:44;;;;;;;8.00;2.03;;;25.80;40.60;;;;;;7685644;23;20020;-75
2022/05/28 10:00:48;;;;;;;3.17;1.92;;;25.80;40.40;;;;;;7684257;23;20021;-75
2022/05/28 10:07:13;;;;;;;3.58;1.60;;;25.80;40.20;;;;;;7710071;23;20020;-75
2022/05/28 10:10:30;;;;;;;2.88;1.70;;;25.80;40.10;;;;;;7658685;23;20013;-75
2022/05/28 10:13:48;;;;;;;3.78;1.60;;;25.90;39.90;;;;;;7709637;23;20015;-75
2022/05/28 10:16:54;;;;;;;7.13;1.50;;;26.00;39.60;;;;;;7683392;23;20034;-75
2022/05/28 10:19:57;;;;;;;3.03;1.80;;;26.10;39.50;;;;;;7682435;23;21381;-75
2022/05/28 10:23:01;;;;;;;1.92;1.40;;;26.10;39.40;;;;;;7686389;23;20025;-75
2022/05/28 10:26:03;;;;;;;5.80;1.67;;;26.00;39.30;;;;;;7686686;23;20079;-74
2022/05/28 10:29:18;;;;;;;3.25;1.58;;;26.00;39.30;;;;;;7713478;23;20292;-75
2022/05/28 10:32:32;;;;;;;3.25;1.10;;;26.00;39.20;;;;;;7670226;23;20016;-75
2022/05/28 10:35:32;;;;;;;1.75;1.30;;;25.90;39.20;;;;;;7672417;23;20385;-74
2022/05/28 10:38:34;;;;;;;2.20;1.40;;;25.90;39.00;;;;;;7710545;23;20043;-76
2022/05/28 10:41:35;;;;;;;6.03;1.73;;;26.00;38.90;;;;;;7682327;23;20424;-76
2022/05/28 10:44:39;;;;;;;3.67;1.30;;;26.00;38.70;;;;;;7660868;23;20316;-75
2022/05/28 10:48:00;;;;;;;4.10;1.52;;;26.10;38.70;;;;;;7686854;23;20792;-83
2022/05/28 10:51:40;;;;;;;5.00;1.60;;;26.20;38.50;;;;;;7668525;23;20043;-80
2022/05/28 10:54:51;;;;;;;2.33;1.60;;;26.30;38.30;;;;;;7478026;23;20155;-84
2022/05/28 10:57:57;;;;;;;6.22;1.40;;;26.50;38.10;;;;;;7508783;23;20037;-82
2022/05/28 11:01:16;;;;;;;4.15;1.10;;;26.70;37.70;;;;;;7491315;23;20434;-84
2022/05/28 11:04:31;;;;;;;2.28;1.48;;;26.90;37.40;;;;;;7514552;23;20038;-82
2022/05/28 11:07:56;;;;;;;1.30;1.20;;;27.10;37.10;;;;;;7506893;23;20050;-80
2022/05/28 11:11:23;;;;;;;4.88;1.20;;;27.20;36.60;;;;;;7480971;23;20699;-80
2022/05/28 11:14:36;;;;;;;2.60;1.17;;;27.30;36.50;;;;;;7490000;23;20698;-80
2022/05/28 11:18:17;;;;;;;2.42;1.08;;;27.20;36.30;;;;;;7514174;23;20090;-80
2022/05/28 11:21:41;;;;;;;3.22;1.42;;;27.20;36.30;;;;;;7505797;23;20023;-80
2022/05/28 11:24:55;;;;;;;2.90;1.27;;;27.20;36.10;;;;;;7511435;23;20437;-79
2022/05/28 11:28:20;;;;;;;3.17;1.00;;;27.20;35.90;;;;;;7512667;23;20059;-79
2022/05/28 11:31:45;;;;;;;3.45;1.38;;;27.30;35.80;;;;;;7608589;23;20033;-78
2022/05/28 11:35:09;;;;;;;2.67;1.23;;;27.30;35.70;;;;;;7700708;23;20400;-78
2022/05/28 13:09:50;;;;;;;1.65;1.08;;;35.80;22.80;;;;;;7777031;22;20037;-79
2022/05/28 13:13:23;;;;;;;1.80;1.15;;;36.80;21.90;;;;;;7609389;23;20329;-80
2022/05/28 13:16:55;;;;;;;0.90;0.80;;;37.40;21.20;;;;;;7462607;23;20305;-79
2022/05/28 13:20:04;;;;;;;0.82;0.80;;;38.20;20.70;;;;;;7521110;23;20090;-78
2022/05/28 13:23:21;;;;;;;1.35;0.95;;;39.30;19.90;;;;;;7497587;23;20445;-79
2022/05/28 13:26:47;;;;;;;1.13;0.80;;;39.60;19.20;;;;;;7523374;23;20035;-79
2022/05/28 13:29:57;;;;;;;1.35;0.80;;;39.90;18.90;;;;;;7518387;23;20055;-80
2022/05/28 13:33:10;;;;;;;1.33;1.00;;;40.50;18.40;;;;;;7522253;23;20026;-81
2022/05/28 13:36:16;;;;;;;3.25;0.90;;;41.00;17.90;;;;;;7524683;23;20026;-79
2022/05/28 13:39:17;;;;;;;2.53;1.00;;;41.60;17.50;;;;;;7483258;23;20027;-78
2022/05/28 13:42:19;;;;;;;1.63;0.95;;;42.20;17.20;;;;;;7524117;23;20030;-80
2022/05/28 13:45:30;;;;;;;1.00;0.70;;;42.30;17.00;;;;;;7499614;23;20118;-80
2022/05/28 13:48:38;;;;;;;1.48;1.00;;;42.50;16.80;;;;;;7523749;23;20016;-78
2022/05/28 13:51:48;;;;;;;3.08;1.10;;;42.20;16.90;;;;;;7577500;23;20067;-81
2022/05/28 13:54:56;;;;;;;1.98;1.00;;;42.00;16.80;;;;;;7619062;23;20017;-81
2022/05/28 13:57:57;;;;;;;3.00;0.70;;;41.80;17.60;;;;;;7609329;23;20040;-79
2022/05/28 14:01:05;;;;;;;5.40;0.90;;;41.80;17.10;;;;;;7635773;23;20018;-80
2022/05/28 14:04:09;;;;;;;;;;;41.90;17.10;;;;;;7645918;23;20010;-78
2022/05/28 14:07:25;;;;;;;1.52;0.98;;;41.90;16.90;;;;;;7610751;23;19982;-79
2022/05/28 14:10:26;;;;;;;2.13;0.85;;;41.60;17.10;;;;;;7612147;23;20017;-78
2022/05/28 14:13:32;;;;;;;4.78;1.00;;;41.50;17.20;;;;;;7636439;23;20385;-77
2022/05/28 14:17:00;;;;;;;2.55;1.25;;;41.60;17.20;;;;;;7659400;23;20018;-78
2022/05/28 14:20:05;;;;;;;2.75;1.10;;;41.40;17.00;;;;;;7615470;23;20080;-78
2022/05/28 14:23:06;;;;;;;2.00;1.00;;;41.10;17.30;;;;;;7585022;23;20019;-79
2022/05/28 14:26:09;;;;;;;4.15;1.00;;;40.60;17.60;;;;;;7583980;23;20013;-79
2022/05/28 14:29:10;;;;;;;1.63;1.38;;;40.50;17.70;;;;;;7609121;23;20028;-79
2022/05/28 14:32:14;;;;;;;1.55;0.80;;;40.50;17.60;;;;;;7599021;23;20014;-79
2022/05/28 14:35:35;;;;;;;3.47;0.95;;;40.70;17.50;;;;;;7634461;23;20271;-78
2022/05/28 14:38:37;;;;;;;3.83;0.90;;;40.60;17.50;;;;;;7597744;23;20026;-79
2022/05/28 14:41:43;;;;;;;1.95;0.90;;;40.70;17.40;;;;;;7630363;23;20014;-78
2022/05/28 14:44:44;;;;;;;4.65;1.13;;;40.60;17.30;;;;;;7669892;23;20044;-79
2022/05/28 14:47:50;;;;;;;4.05;0.82;;;40.50;17.20;;;;;;7669784;23;20088;-79
2022/05/28 14:50:54;;;;;;;2.42;1.15;;;40.50;17.30;;;;;;7642631;23;20024;-79
2022/05/28 14:53:55;;;;;;;2.08;0.93;;;40.40;17.00;;;;;;7644525;23;20024;-78
2022/05/28 14:56:57;;;;;;;2.80;1.33;;;40.40;17.20;;;;;;7621250;23;20092;-79
2022/05/28 15:00:02;;;;;;;0.98;0.63;;;40.30;17.20;;;;;;7670813;23;22563;-82
2022/05/28 15:03:14;;;;;;;0.77;0.63;;;39.90;17.30;;;;;;7668209;23;20024;-78
2022/05/28 15:06:27;;;;;;;1.73;0.95;;;39.30;17.70;;;;;;7637434;23;20028;-76
2022/05/28 15:09:30;;;;;;;1.40;0.90;;;38.20;18.60;;;;;;7666533;23;20024;-77
2022/05/28 15:12:33;;;;;;;3.90;1.00;;;37.00;19.50;;;;;;7690879;23;20028;-77
2022/05/28 15:15:34;;;;;;;6.45;1.10;;;36.00;20.20;;;;;;7670634;23;20088;-79
2022/05/28 15:18:36;;;;;;;1.05;0.88;;;35.90;20.20;;;;;;7668472;23;20039;-78
2022/05/28 15:21:38;;;;;;;0.85;0.70;;;36.30;20.00;;;;;;7694453;23;20305;-77
2022/05/28 15:24:41;;;;;;;2.97;0.90;;;36.60;19.80;;;;;;7680913;23;20021;-78
2022/05/28 15:27:42;;;;;;;2.22;1.15;;;37.00;19.50;;;;;;7671814;23;20045;-77
2022/05/28 15:30:44;;;;;;;5.63;0.98;;;37.20;19.30;;;;;;7665144;23;20025;-78
2022/05/28 15:33:47;;;;;;;3.70;0.80;;;37.50;19.00;;;;;;7683905;23;20024;-77
2022/05/28 15:40:10;;;;;;;1.13;1.02;;;37.70;18.90;;;;;;7692451;23;20024;-78
2022/05/28 15:43:11;;;;;;;0.77;0.77;;;38.00;18.50;;;;;;7678511;23;20451;-78
2022/05/28 15:46:12;;;;;;;7.20;1.10;;;38.10;18.40;;;;;;7669751;23;20013;-77
2022/05/28 15:49:16;;;;;;;2.00;0.88;;;38.20;18.30;;;;;;7668602;23;20020;-79
2022/05/28 15:52:17;;;;;;;1.77;0.85;;;38.20;18.30;;;;;;7693539;23;20083;-78
2022/05/28 15:55:19;;;;;;;4.95;1.48;;;37.90;18.40;;;;;;7668865;23;20029;-79
2022/05/28 15:58:35;;;;;;;5.05;0.98;;;37.60;18.50;;;;;;7668039;23;20025;-78
2022/05/28 16:01:38;;;;;;;3.75;1.00;;;37.40;18.70;;;;;;7691970;23;20038;-78
2022/05/28 16:04:39;;;;;;;4.13;1.00;;;37.60;18.70;;;;;;7667935;23;20017;-76
2022/05/28 16:07:45;;;;;;;2.35;1.00;;;37.70;18.50;;;;;;7666031;23;20031;-77
2022/05/28 16:10:46;;;;;;;3.88;1.10;;;37.50;18.50;;;;;;7666294;23;20021;-78
2022/05/28 16:13:48;;;;;;;4.13;1.60;;;37.60;18.40;;;;;;7666776;23;20054;-78
2022/05/28 16:16:49;;;;;;;3.42;1.30;;;37.40;18.60;;;;;;7668562;23;20429;-78
2022/05/28 16:19:50;;;;;;;2.63;1.10;;;37.10;18.80;;;;;;7669340;23;20067;-79
2022/05/28 16:22:51;;;;;;;4.50;1.00;;;36.90;18.80;;;;;;7669724;23;20029;-80
2022/05/28 16:25:52;;;;;;;1.88;1.15;;;36.70;19.00;;;;;;7671641;23;20449;-79
2022/05/28 16:28:57;;;;;;;4.05;0.93;;;36.50;19.10;;;;;;7695185;23;20020;-78
2022/05/28 16:31:58;;;;;;;5.20;1.23;;;36.20;19.30;;;;;;7640677;23;20017;-78
2022/05/28 16:34:59;;;;;;;2.95;0.95;;;36.10;19.50;;;;;;7644408;23;20312;-77
2022/05/28 16:38:00;;;;;;;8.52;1.30;;;35.90;19.70;;;;;;7643344;23;20017;-77
2022/05/28 16:41:01;;;;;;;5.95;1.30;;;35.70;19.90;;;;;;7670072;23;20397;-77
2022/05/28 16:44:08;;;;;;;10.30;1.42;;;35.50;20.20;;;;;;7628446;23;20116;-80
2022/05/28 16:47:09;;;;;;;1.63;1.08;;;35.40;20.10;;;;;;7692429;23;20017;-81
2022/05/28 16:50:12;;;;;;;4.72;1.40;;;34.90;20.40;;;;;;7646767;23;20023;-80
2022/05/28 16:53:14;;;;;;;3.42;1.40;;;33.90;21.20;;;;;;7667886;23;20012;-79
2022/05/28 16:56:20;;;;;;;6.85;1.25;;;32.80;22.20;;;;;;7643150;23;20047;-78
2022/05/28 16:59:20;;;;;;;1.95;1.10;;;31.80;23.20;;;;;;7668132;23;20621;-78
2022/05/28 17:02:21;;;;;;;2.30;1.05;;;30.90;24.10;;;;;;7693331;23;20083;-76
2022/05/28 17:05:23;;;;;;;1.67;1.08;;;30.20;24.90;;;;;;7668932;23;20440;-75
2022/05/28 17:08:23;;;;;;;5.95;1.27;;;29.60;25.50;;;;;;7693584;23;20411;-75
2022/05/28 17:11:27;;;;;;;2.90;1.00;;;29.10;26.10;;;;;;7646282;23;20025;-76
2022/05/28 17:14:28;;;;;;;4.20;0.98;;;28.60;26.60;;;;;;7671596;23;20075;-76
2022/05/28 17:17:29;;;;;;;4.78;1.17;;;28.20;27.10;;;;;;7646005;23;20017;-75
2022/05/28 17:20:30;;;;;;;4.60;1.30;;;27.90;27.50;;;;;;7672658;23;20036;-75
2022/05/28 17:23:32;;;;;;;5.93;1.10;;;27.60;27.80;;;;;;7672382;23;20073;-75
2022/05/28 17:26:34;;;;;;;2.00;1.05;;;27.40;28.10;;;;;;7646446;23;20083;-76
2022/05/28 17:29:36;;;;;;;8.25;1.20;;;27.20;28.30;;;;;;7696849;23;20021;-75
2022/05/28 17:32:36;;;;;;;3.45;1.60;;;27.00;28.60;;;;;;7672917;23;20032;-75
2022/05/28 17:35:38;;;;;;;6.22;1.33;;;26.80;28.80;;;;;;7681027;23;20360;-75
2022/05/28 17:38:41;;;;;;;6.53;1.40;;;26.60;29.10;;;;;;7672188;23;20025;-74
2022/05/28 17:41:42;;;;;;;7.85;1.63;;;26.50;29.40;;;;;;7647256;23;20021;-75
2022/05/28 17:44:43;;;;;;;9.70;1.40;;;26.40;29.50;;;;;;7672202;23;20219;-76